Time;durP1;ratioP1;P1;durP2;ratioP2;P2;SDS_P1;SDS_P2;PMS_P1;PMS_P2;Temp;Humidity;BMP_temperature;BMP_pressure;BME280_temperature;BME280_humidity;BME280_pressure;Samples;Min_cycle;Max_cycle;Signal;HPM_P1;HPM_P2
2022/03/28 00:01:18;;;;;;;3.13;1.77;;;;;;;1.44;55.63;99551.25;5079251;28;20075;-61
2022/03/28 00:03:49;;;;;;;3.03;1.80;;;;;;;1.54;56.64;99562.50;5079423;28;20342;-61
2022/03/28 00:06:20;;;;;;;6.10;2.00;;;;;;;1.59;56.74;99569.41;5079648;28;20053;-61
2022/03/28 00:08:51;;;;;;;6.40;1.75;;;;;;;1.57;56.08;99573.69;5079437;28;20115;-61
2022/03/28 00:11:22;;;;;;;4.55;2.05;;;;;;;1.43;57.67;99567.56;5079312;28;20044;-61
2022/03/28 00:13:52;;;;;;;6.35;2.40;;;;;;;1.49;56.79;99578.78;5079211;28;20059;-61
2022/03/28 00:16:25;;;;;;;6.75;2.30;;;;;;;1.39;56.42;99583.81;5079286;28;20063;-61
2022/03/28 00:18:56;;;;;;;8.77;2.53;;;;;;;1.34;56.65;99581.19;5078763;28;20359;-61
2022/03/28 00:21:26;;;;;;;3.75;1.98;;;;;;;0.88;56.48;99523.28;5078736;28;20045;-61
2022/03/28 00:23:58;;;;;;;6.32;1.98;;;;;;;1.06;56.57;99544.03;5078893;28;20060;-61
2022/03/28 00:26:28;;;;;;;11.05;2.30;;;;;;;1.52;57.59;99616.56;5078760;28;20064;-61
2022/03/28 00:28:59;;;;;;;3.80;1.98;;;;;;;1.31;56.05;99612.06;5078806;28;20055;-61
2022/03/28 00:31:31;;;;;;;6.05;2.63;;;;;;;1.06;57.59;99631.53;5071793;28;20048;-62
2022/03/28 00:34:02;;;;;;;10.10;2.60;;;;;;;1.26;57.84;99636.91;5058530;28;20057;-62
2022/03/28 00:36:33;;;;;;;5.13;2.50;;;;;;;1.04;57.25;99638.34;5063373;28;20079;-62
2022/03/28 00:39:04;;;;;;;4.88;1.92;;;;;;;0.89;56.76;99653.59;5075190;28;20053;-62
2022/03/28 00:41:34;;;;;;;5.05;2.05;;;;;;;0.83;58.25;99655.25;5077755;28;20119;-62
2022/03/28 00:44:07;;;;;;;4.45;2.55;;;;;;;0.69;57.19;99656.75;5075272;28;20048;-62
2022/03/28 00:46:40;;;;;;;6.70;2.45;;;;;;;0.65;57.32;99665.28;5077418;28;20111;-62
2022/03/28 00:49:11;;;;;;;4.07;2.33;;;;;;;0.61;57.92;99678.94;5077315;28;20382;-61
2022/03/28 00:51:41;;;;;;;5.78;3.05;;;;;;;0.47;58.25;99693.28;5077548;28;20120;-61
2022/03/28 00:54:12;;;;;;;8.15;2.50;;;;;;;0.41;58.06;99692.34;5077285;28;20333;-62
2022/03/28 00:56:43;;;;;;;8.88;2.72;;;;;;;0.34;58.87;99700.81;5077490;28;20254;-61
2022/03/28 00:59:14;;;;;;;4.28;2.08;;;;;;;0.42;59.19;99700.91;5077380;28;20060;-61
2022/03/28 01:01:46;;;;;;;5.00;2.25;;;;;;;0.50;56.99;99701.03;5077077;28;20103;-61
2022/03/28 01:04:17;;;;;;;7.57;2.28;;;;;;;0.55;56.47;99695.16;5072809;28;20054;-61
2022/03/28 01:06:48;;;;;;;7.32;2.92;;;;;;;0.78;56.79;99723.75;5075142;28;20052;-61
2022/03/28 01:09:20;;;;;;;9.52;2.78;;;;;;;0.78;57.79;99728.91;5077065;28;20105;-62
2022/03/28 01:11:53;;;;;;;12.55;2.58;;;;;;;0.93;58.48;99727.41;5077150;28;20103;-62
2022/03/28 01:14:24;;;;;;;6.38;2.50;;;;;;;0.99;56.55;99732.63;5077740;28;20064;-62
2022/03/28 01:19:44;;;;;;;8.70;2.47;;;;;;;1.11;56.33;99742.22;5076855;28;20064;-61
2022/03/28 01:22:16;;;;;;;6.60;2.65;;;;;;;0.99;56.55;99748.06;5076941;28;20048;-61
2022/03/28 01:24:47;;;;;;;7.30;2.25;;;;;;;0.74;57.35;99739.97;5090737;28;20258;-62
2022/03/28 01:27:20;;;;;;;6.30;2.67;;;;;;;0.75;57.60;99749.44;5086228;28;20082;-62
2022/03/28 01:29:51;;;;;;;4.47;2.30;;;;;;;0.61;56.81;99720.06;5076983;28;20064;-63
2022/03/28 01:32:22;;;;;;;7.90;2.78;;;;;;;0.85;57.27;99756.44;5078072;28;20056;-63
2022/03/28 01:34:53;;;;;;;5.15;2.70;;;;;;;0.83;55.54;99755.56;5077859;28;20044;-62
2022/03/28 01:37:25;;;;;;;4.45;2.40;;;;;;;1.01;56.27;99756.66;5075313;28;20285;-62
2022/03/28 01:39:56;;;;;;;4.53;2.00;;;;;;;1.11;54.96;99750.78;5076996;28;20060;-62
2022/03/28 01:42:26;;;;;;;12.15;3.17;;;;;;;1.32;55.00;99746.78;5076969;28;20044;-61
2022/03/28 01:44:57;;;;;;;4.53;2.30;;;;;;;1.54;55.07;99743.59;5076604;28;20114;-61
2022/03/28 01:47:28;;;;;;;7.15;2.10;;;;;;;1.59;54.27;99761.69;5076656;28;20128;-61
2022/03/28 01:49:59;;;;;;;6.57;2.42;;;;;;;1.65;54.14;99752.34;5076405;28;20040;-61
2022/03/28 01:52:31;;;;;;;4.65;2.30;;;;;;;1.80;54.12;99771.38;5076757;28;20135;-61
2022/03/28 01:55:02;;;;;;;6.82;2.67;;;;;;;2.11;54.26;99768.28;5074027;28;20044;-61
2022/03/28 01:57:32;;;;;;;4.45;2.00;;;;;;;1.99;54.28;99793.06;5076500;28;20266;-61
2022/03/28 02:00:03;;;;;;;7.05;2.28;;;;;;;1.69;54.57;99769.53;5074214;28;20286;-61
2022/03/28 02:02:34;;;;;;;4.78;2.08;;;;;;;1.35;53.41;99808.56;5076550;28;20053;-61
2022/03/28 02:05:05;;;;;;;5.15;2.00;;;;;;;0.95;54.28;99808.00;5074136;28;20143;-63
2022/03/28 02:07:37;;;;;;;3.92;2.20;;;;;;;0.80;55.08;99819.81;5076248;28;20128;-62
2022/03/28 02:10:09;;;;;;;5.90;2.05;;;;;;;0.66;55.35;99821.28;5076403;28;20287;-61
2022/03/28 02:12:41;;;;;;;8.55;2.42;;;;;;;0.75;56.10;99826.59;5076357;28;20053;-62
2022/03/28 02:15:12;;;;;;;6.32;2.10;;;;;;;0.65;54.46;99832.44;5074882;28;20105;-62
2022/03/28 02:17:43;;;;;;;8.45;2.38;;;;;;;0.61;55.36;99826.34;5076504;28;20057;-62
2022/03/28 02:20:15;;;;;;;5.35;3.05;;;;;;;0.79;55.43;99838.63;5073741;28;20052;-62
2022/03/28 02:22:48;;;;;;;7.18;2.42;;;;;;;0.96;55.10;99820.91;5076526;28;20065;-62
2022/03/28 02:25:19;;;;;;;9.05;2.92;;;;;;;1.05;53.92;99830.50;5074320;28;20274;-62
2022/03/28 02:27:50;;;;;;;4.35;2.20;;;;;;;1.12;53.82;99832.28;5076078;28;20339;-62
2022/03/28 02:30:20;;;;;;;8.38;2.35;;;;;;;1.29;53.17;99848.84;5075946;28;20052;-62
2022/03/28 02:32:51;;;;;;;4.60;2.13;;;;;;;1.38;53.24;99854.97;5076116;28;20080;-61
2022/03/28 02:35:22;;;;;;;4.72;1.92;;;;;;;1.51;51.37;99856.88;5076210;28;20072;-61
2022/03/28 02:37:54;;;;;;;3.55;2.05;;;;;;;1.46;53.05;99863.66;5073817;28;20327;-61
2022/03/28 02:40:25;;;;;;;2.97;2.00;;;;;;;1.40;51.43;99873.88;5076663;28;20323;-61
2022/03/28 02:42:57;;;;;;;3.47;2.05;;;;;;;1.78;50.88;99886.44;5080327;28;20095;-61
2022/03/28 02:45:29;;;;;;;4.97;2.28;;;;;;;1.56;52.80;99880.13;5075568;28;20080;-61
2022/03/28 02:48:00;;;;;;;3.20;2.25;;;;;;;1.57;50.99;99885.25;5070995;28;20061;-61
2022/03/28 02:50:34;;;;;;;4.78;2.13;;;;;;;1.37;52.10;99884.13;5077761;28;20339;-61
2022/03/28 02:53:07;;;;;;;2.47;1.65;;;;;;;1.37;51.73;99900.44;5079080;28;20461;-61
2022/03/28 02:55:37;;;;;;;3.28;2.00;;;;;;;1.41;52.61;99896.22;5087261;28;20056;-62
2022/03/28 02:58:08;;;;;;;4.18;2.42;;;;;;;1.60;51.77;99911.09;5086442;28;20065;-61
2022/03/28 03:00:39;;;;;;;6.10;1.90;;;;;;;1.45;51.31;99893.72;5081940;28;20051;-61
2022/03/28 03:03:10;;;;;;;6.53;2.30;;;;;;;1.17;51.90;99884.69;5085750;28;20060;-62
2022/03/28 03:05:42;;;;;;;5.40;2.17;;;;;;;1.36;51.94;99923.59;5085873;28;20310;-61
2022/03/28 03:08:14;;;;;;;5.50;1.92;;;;;;;1.45;51.60;99913.44;5085565;28;20040;-61
2022/03/28 03:10:46;;;;;;;5.43;2.00;;;;;;;1.17;49.79;99856.38;5086415;28;20060;-61
2022/03/28 03:13:16;;;;;;;5.88;1.63;;;;;;;0.73;50.62;99887.41;5086636;28;20048;-61
2022/03/28 03:15:47;;;;;;;6.25;2.08;;;;;;;1.01;51.63;99944.47;5086275;28;20374;-61
2022/03/28 03:18:17;;;;;;;5.28;2.05;;;;;;;1.10;51.92;99931.78;5086165;28;20245;-61
2022/03/28 03:20:48;;;;;;;5.68;1.70;;;;;;;0.95;50.99;99923.78;5086145;28;20618;-61
2022/03/28 03:23:20;;;;;;;5.20;1.95;;;;;;;1.35;51.97;99937.28;5086611;28;20106;-61
2022/03/28 03:25:51;;;;;;;6.95;2.38;;;;;;;1.39;51.13;99933.94;5085270;28;20056;-61
2022/03/28 03:28:22;;;;;;;4.13;2.28;;;;;;;1.35;50.02;99942.44;5086045;28;20111;-61
2022/03/28 03:30:52;;;;;;;2.60;1.60;;;;;;;1.28;51.67;99957.78;5086335;28;20446;-61
2022/03/28 03:33:23;;;;;;;6.38;1.90;;;;;;;1.38;51.57;99960.53;5086603;28;20110;-61
2022/03/28 03:35:54;;;;;;;4.07;2.10;;;;;;;1.28;50.57;99947.50;5086201;28;20123;-60
2022/03/28 03:38:27;;;;;;;5.45;1.77;;;;;;;1.29;50.35;99954.38;5086247;28;20331;-60
2022/03/28 03:40:58;;;;;;;2.95;1.70;;;;;;;1.40;49.55;99966.53;5086384;28;20394;-61
2022/03/28 03:43:28;;;;;;;5.15;2.05;;;;;;;1.40;51.13;99957.13;5085159;28;20418;-61
2022/03/28 03:45:59;;;;;;;14.57;2.40;;;;;;;1.50;51.22;99953.00;5086319;28;20056;-61
2022/03/28 03:48:29;;;;;;;6.45;2.30;;;;;;;1.61;52.56;99959.16;5085729;28;20261;-61
2022/03/28 03:51:00;;;;;;;3.58;1.60;;;;;;;1.52;49.61;99966.72;5084701;28;20053;-61
2022/03/28 03:53:32;;;;;;;3.78;1.88;;;;;;;1.44;49.83;99968.34;5084978;28;20044;-61
2022/03/28 03:56:03;;;;;;;9.55;3.00;;;;;;;1.43;49.83;99982.06;5085998;28;20052;-61
2022/03/28 03:58:34;;;;;;;5.55;2.13;;;;;;;1.48;48.36;99985.56;5086189;28;20115;-60
2022/03/28 04:01:05;;;;;;;7.00;2.00;;;;;;;1.53;48.87;99989.09;5083931;28;20052;-61
2022/03/28 04:03:36;;;;;;;5.10;1.77;;;;;;;1.62;49.61;99994.38;5085786;28;20070;-62
2022/03/28 04:06:10;;;;;;;6.65;1.83;;;;;;;1.69;49.45;100003.06;5085465;28;20356;-61
2022/03/28 04:08:43;;;;;;;4.63;1.80;;;;;;;1.61;49.42;100012.38;5085287;28;20075;-61
2022/03/28 04:11:14;;;;;;;2.67;1.67;;;;;;;1.60;49.56;100015.78;5083100;28;20402;-62
2022/03/28 04:13:44;;;;;;;3.78;1.80;;;;;;;1.61;50.14;100033.84;5084228;28;20052;-62
2022/03/28 04:16:15;;;;;;;5.88;1.80;;;;;;;1.76;48.54;100032.38;5085541;28;20051;-61
2022/03/28 04:18:46;;;;;;;2.22;1.42;;;;;;;1.66;47.63;100039.94;5085500;28;20052;-62
2022/03/28 04:21:17;;;;;;;7.75;2.38;;;;;;;1.61;47.79;100032.97;5085134;28;20047;-62
2022/03/28 04:23:49;;;;;;;3.92;1.83;;;;;;;1.47;47.38;100049.09;5085477;28;20334;-62
2022/03/28 04:26:20;;;;;;;4.25;1.50;;;;;;;1.46;46.32;100043.91;5085596;28;20056;-61
2022/03/28 04:28:51;;;;;;;4.43;1.52;;;;;;;1.53;46.97;100056.03;5085890;28;20060;-61
2022/03/28 04:31:21;;;;;;;7.32;1.90;;;;;;;1.69;48.45;100065.72;5085057;28;20052;-61
2022/03/28 04:33:52;;;;;;;6.40;1.70;;;;;;;1.84;46.58;100059.09;5085355;28;20076;-61
2022/03/28 04:36:23;;;;;;;4.28;1.50;;;;;;;1.85;46.28;100064.28;5085200;28;20048;-61
2022/03/28 04:38:55;;;;;;;3.58;1.50;;;;;;;1.84;45.75;100062.53;5085610;28;20484;-61
2022/03/28 04:41:26;;;;;;;1.58;1.20;;;;;;;1.81;44.60;100071.94;5085549;28;20055;-61
2022/03/28 04:43:57;;;;;;;5.13;1.50;;;;;;;1.61;46.02;100054.44;5085067;28;20044;-61
2022/03/28 04:46:28;;;;;;;5.88;1.80;;;;;;;1.83;46.34;100075.41;5085164;28;20040;-60
2022/03/28 04:48:59;;;;;;;5.15;1.20;;;;;;;1.62;46.27;100061.34;5084916;28;20825;-60
2022/03/28 04:51:30;;;;;;;4.88;1.65;;;;;;;1.61;47.36;100054.44;5084960;28;20293;-60
2022/03/28 04:54:02;;;;;;;3.75;1.27;;;;;;;1.56;45.42;100076.69;5084793;28;20043;-61
2022/03/28 04:56:34;;;;;;;2.25;1.20;;;;;;;1.35;46.00;100081.44;5084660;28;20045;-61
2022/03/28 04:59:04;;;;;;;4.40;1.58;;;;;;;1.34;47.85;100072.88;5085027;28;20297;-61
2022/03/28 05:01:35;;;;;;;1.95;1.30;;;;;;;1.44;45.76;100081.63;5084050;28;20060;-61
2022/03/28 05:04:06;;;;;;;3.40;1.40;;;;;;;1.39;45.97;100093.53;5083121;28;20111;-62
2022/03/28 05:06:37;;;;;;;4.35;1.38;;;;;;;1.52;44.85;100100.63;5084273;28;20107;-61
2022/03/28 05:09:09;;;;;;;3.85;1.50;;;;;;;1.57;46.36;100103.28;5084701;28;20237;-61
2022/03/28 05:11:40;;;;;;;6.30;1.60;;;;;;;1.65;46.06;100110.34;5082793;28;20063;-61
2022/03/28 05:14:10;;;;;;;4.22;1.52;;;;;;;1.52;44.70;100121.25;5083488;28;20107;-62
2022/03/28 05:16:41;;;;;;;2.53;1.30;;;;;;;1.10;44.45;100052.72;5084697;28;20883;-62
2022/03/28 05:19:12;;;;;;;2.75;1.20;;;;;;;1.39;44.13;100088.41;5084585;28;20083;-61
2022/03/28 05:21:43;;;;;;;2.05;1.25;;;;;;;1.58;45.84;100105.06;5084100;28;20048;-61
2022/03/28 05:24:15;;;;;;;4.90;1.85;;;;;;;1.82;43.86;100135.50;5084248;28;20044;-62
2022/03/28 05:26:46;;;;;;;3.35;1.40;;;;;;;1.80;43.98;100121.72;5084304;28;20254;-62
2022/03/28 05:29:18;;;;;;;8.70;1.55;;;;;;;1.85;43.60;100130.41;5084408;28;20052;-60
2022/03/28 05:31:49;;;;;;;3.03;1.00;;;;;;;1.79;43.36;100135.44;5084091;28;20091;-61
2022/03/28 05:34:22;;;;;;;2.35;1.25;;;;;;;1.72;43.75;100139.63;5084260;28;20050;-61
2022/03/28 05:36:53;;;;;;;2.17;1.30;;;;;;;1.40;43.40;100146.75;5084223;28;20322;-61
2022/03/28 05:39:25;;;;;;;3.72;1.52;;;;;;;1.36;45.41;100150.13;5083994;28;20593;-61
2022/03/28 05:42:01;;;;;;;1.33;1.08;;;;;;;0.96;43.95;100139.06;5083990;28;20052;-61
2022/03/28 05:44:32;;;;;;;3.85;1.40;;;;;;;1.16;47.64;100178.91;5083975;28;20346;-61
2022/03/28 05:47:03;;;;;;;1.95;1.23;;;;;;;0.95;43.97;100163.03;5084058;28;20045;-61
2022/03/28 05:49:34;;;;;;;3.20;1.30;;;;;;;0.94;44.75;100176.75;5083087;28;20048;-61
2022/03/28 05:52:05;;;;;;;1.85;1.20;;;;;;;0.95;43.98;100168.16;5083808;28;20483;-61
2022/03/28 05:54:38;;;;;;;1.33;1.17;;;;;;;0.78;44.33;100166.13;5083898;28;20436;-61
2022/03/28 05:57:08;;;;;;;4.28;1.40;;;;;;;0.94;44.25;100189.59;5083744;28;20076;-61
2022/03/28 05:59:39;;;;;;;3.22;1.40;;;;;;;1.02;45.68;100190.63;5083320;28;20045;-61
2022/03/28 06:02:10;;;;;;;4.30;1.60;;;;;;;1.13;46.07;100189.16;5083914;28;20106;-61
2022/03/28 06:04:40;;;;;;;3.65;1.70;;;;;;;1.19;45.17;100204.72;5083536;28;20067;-61
2022/03/28 06:07:11;;;;;;;5.38;1.40;;;;;;;0.97;44.47;100151.94;5083055;28;20060;-61
2022/03/28 06:09:43;;;;;;;4.70;1.80;;;;;;;1.34;44.44;100211.00;5083043;28;20246;-60
2022/03/28 06:12:15;;;;;;;3.55;1.70;;;;;;;1.37;44.98;100218.78;5082130;28;20242;-61
2022/03/28 06:14:45;;;;;;;3.47;1.42;;;;;;;1.40;45.25;100224.00;5081437;28;20071;-61
2022/03/28 06:17:22;;;;;;;5.00;1.55;;;;;;;1.55;45.61;100239.78;5086119;28;20044;-61
2022/03/28 06:19:53;;;;;;;4.63;1.65;;;;;;;1.72;46.43;100246.13;5087626;28;20127;-61
2022/03/28 06:22:24;;;;;;;2.85;1.38;;;;;;;1.61;45.34;100239.88;5086441;28;20098;-62
2022/03/28 06:24:57;;;;;;;3.30;1.40;;;;;;;1.75;44.18;100249.56;5088151;28;20846;-62
2022/03/28 06:27:47;;;;;;;3.97;1.50;;;;;;;1.54;44.33;100258.63;5087386;28;20083;-61
2022/03/28 06:30:18;;;;;;;2.75;1.45;;;;;;;1.46;44.72;100229.28;5087465;28;20104;-62
2022/03/28 06:32:49;;;;;;;1.98;1.35;;;;;;;1.52;43.83;100275.75;5087543;28;20105;-62
2022/03/28 06:35:19;;;;;;;1.33;1.20;;;;;;;1.33;44.25;100273.66;5087531;28;20068;-62
2022/03/28 06:37:52;;;;;;;6.75;1.50;;;;;;;1.25;45.48;100287.22;5086014;28;20053;-62
2022/03/28 06:40:25;;;;;;;3.83;1.40;;;;;;;0.85;45.29;100270.91;5087561;28;20100;-62
2022/03/28 06:42:56;;;;;;;1.20;1.10;;;;;;;0.88;44.49;100279.53;5087668;28;20044;-62
2022/03/28 06:45:26;;;;;;;6.00;1.20;;;;;;;0.79;43.42;100281.03;5087508;28;20048;-62
2022/03/28 06:47:57;;;;;;;1.10;1.00;;;;;;;0.71;45.55;100292.84;5085824;28;20347;-62
2022/03/28 06:50:48;;;;;;;2.00;1.25;;;;;;;0.62;46.43;100287.47;5086251;28;20044;-63
2022/03/28 06:53:19;;;;;;;3.55;1.30;;;;;;;0.63;45.19;100289.22;5086858;28;20109;-62
2022/03/28 06:55:51;;;;;;;2.70;1.67;;;;;;;0.54;45.12;100278.72;5086920;28;20330;-62
2022/03/28 06:58:22;;;;;;;3.10;1.40;;;;;;;0.58;45.77;100295.97;5086306;28;20051;-62
2022/03/28 07:00:53;;;;;;;2.53;1.50;;;;;;;0.54;46.65;100296.72;5087397;28;20116;-62
2022/03/28 07:03:24;;;;;;;1.85;1.20;;;;;;;0.53;47.26;100308.69;5087367;28;20219;-62
2022/03/28 07:05:55;;;;;;;3.85;1.50;;;;;;;0.52;46.46;100311.22;5086778;28;20059;-62
2022/03/28 07:08:25;;;;;;;2.33;1.33;;;;;;;0.58;46.44;100311.38;5087146;28;20237;-62
2022/03/28 07:10:58;;;;;;;1.60;1.50;;;;;;;0.63;47.63;100314.94;5086033;28;20220;-62
2022/03/28 07:13:29;;;;;;;5.07;1.75;;;;;;;0.65;48.06;100318.44;5086867;28;20049;-62
2022/03/28 07:16:00;;;;;;;2.75;1.60;;;;;;;0.49;46.91;100285.44;5086491;28;20131;-61
2022/03/28 07:18:31;;;;;;;2.28;1.60;;;;;;;0.62;47.67;100313.19;5085678;28;20062;-62
2022/03/28 07:21:01;;;;;;;3.75;1.60;;;;;;;0.60;48.08;100314.84;5086631;28;20416;-62
2022/03/28 07:23:32;;;;;;;3.45;1.55;;;;;;;0.62;48.69;100318.31;5085610;28;20087;-62
2022/03/28 07:26:04;;;;;;;3.90;1.73;;;;;;;0.62;47.55;100318.31;5085929;28;20066;-62
2022/03/28 07:28:38;;;;;;;3.28;1.67;;;;;;;0.56;47.94;100323.34;5084332;28;20089;-62
2022/03/28 07:31:09;;;;;;;5.82;1.90;;;;;;;0.59;48.38;100326.84;5085215;28;20338;-61
2022/03/28 07:33:41;;;;;;;4.03;1.75;;;;;;;0.60;48.48;100337.97;5085229;28;20334;-62
2022/03/28 07:36:12;;;;;;;1.50;1.40;;;;;;;0.47;48.75;100334.25;5084063;28;20058;-62
2022/03/28 07:38:42;;;;;;;3.08;1.67;;;;;;;0.37;49.33;100348.56;5086260;28;20053;-62
2022/03/28 07:41:15;;;;;;;2.10;1.60;;;;;;;0.22;49.47;100332.72;5086322;28;20052;-62
2022/03/28 07:43:46;;;;;;;4.45;1.80;;;;;;;-0.14;48.31;100282.13;5085438;28;20216;-62
2022/03/28 07:46:18;;;;;;;4.13;2.00;;;;;;;0.30;48.55;100367.25;5085858;28;20052;-62
2022/03/28 07:48:49;;;;;;;2.42;1.70;;;;;;;0.22;48.96;100373.84;5086073;28;20044;-62
2022/03/28 07:51:19;;;;;;;3.33;1.45;;;;;;;-0.07;49.52;100361.09;5085974;28;20273;-61
2022/03/28 07:53:50;;;;;;;3.47;1.60;;;;;;;-0.07;50.36;100370.50;5085392;28;20131;-61
2022/03/28 07:56:22;;;;;;;5.57;2.10;;;;;;;-0.12;50.96;100367.78;5085564;28;20060;-61
2022/03/28 07:58:53;;;;;;;2.33;1.70;;;;;;;-0.03;51.34;100393.72;5086248;28;20041;-62
2022/03/28 08:01:24;;;;;;;2.28;1.70;;;;;;;-0.06;51.89;100403.91;5086077;28;20958;-61
2022/03/28 08:03:55;;;;;;;2.90;1.73;;;;;;;-0.01;52.00;100415.19;5086030;28;20052;-61
2022/03/28 08:06:25;;;;;;;3.88;1.75;;;;;;;-0.02;51.51;100423.75;5086251;28;20059;-61
2022/03/28 08:08:56;;;;;;;3.17;1.50;;;;;;;0.05;51.61;100426.47;5084593;28;20087;-61
2022/03/28 08:11:29;;;;;;;4.57;1.90;;;;;;;0.11;51.35;100432.66;5085940;28;20052;-61
2022/03/28 08:14:01;;;;;;;4.28;2.00;;;;;;;0.15;52.28;100438.75;5086257;28;20093;-61
2022/03/28 08:16:32;;;;;;;4.72;1.70;;;;;;;0.23;53.07;100436.44;5085482;28;20542;-61
2022/03/28 08:19:03;;;;;;;2.55;2.00;;;;;;;0.36;54.39;100444.50;5085649;28;20333;-61
2022/03/28 08:21:34;;;;;;;7.05;2.20;;;;;;;0.29;53.75;100426.31;5084850;28;20044;-61
2022/03/28 08:24:05;;;;;;;5.93;2.30;;;;;;;0.35;52.84;100458.19;5085731;28;20090;-61
2022/03/28 08:26:37;;;;;;;4.80;1.90;;;;;;;0.27;53.25;100461.38;5085805;28;20060;-61
2022/03/28 08:29:08;;;;;;;8.60;2.72;;;;;;;0.22;53.07;100461.22;5085414;28;20083;-61
2022/03/28 08:31:38;;;;;;;6.75;2.42;;;;;;;0.15;54.09;100470.47;5085220;28;20044;-61
2022/03/28 08:34:10;;;;;;;3.75;2.03;;;;;;;0.11;55.02;100467.78;5085304;28;20119;-61
2022/03/28 08:36:40;;;;;;;6.70;2.30;;;;;;;0.07;54.79;100481.34;5085499;28;20052;-60
2022/03/28 08:39:11;;;;;;;7.25;2.10;;;;;;;-0.12;54.25;100470.53;5085163;28;20329;-61
2022/03/28 08:41:44;;;;;;;12.43;2.20;;;;;;;-0.19;54.45;100473.75;5085277;28;20067;-61
2022/03/28 08:44:14;;;;;;;8.77;2.08;;;;;;;-0.19;55.62;100489.16;5085108;28;20105;-60
2022/03/28 08:46:47;;;;;;;11.02;4.07;;;;;;;-0.46;55.50;100454.09;5084978;28;20078;-60
2022/03/28 08:49:21;;;;;;;11.57;4.90;;;;;;;-0.31;55.79;100491.34;5085062;28;20059;-61
2022/03/28 08:51:51;;;;;;;4.85;2.90;;;;;;;-0.40;56.87;100489.38;5085171;28;20053;-61
2022/03/28 08:54:22;;;;;;;10.57;2.50;;;;;;;-0.45;56.20;100491.78;5084904;28;20090;-60
2022/03/28 08:56:54;;;;;;;3.33;2.45;;;;;;;-0.48;57.58;100501.94;5084725;28;20116;-60
2022/03/28 08:59:25;;;;;;;3.38;2.03;;;;;;;-0.52;58.50;100510.38;5084558;28;20048;-61
2022/03/28 09:01:55;;;;;;;4.35;2.50;;;;;;;-0.54;60.10;100509.44;5084536;28;20224;-61
2022/03/28 09:04:26;;;;;;;5.97;3.45;;;;;;;-0.65;59.00;100510.78;5084051;28;20055;-61
2022/03/28 09:06:59;;;;;;;53.15;4.75;;;;;;;-0.72;60.64;100511.44;5083427;28;20071;-61
2022/03/28 09:09:34;;;;;;;5.30;2.50;;;;;;;-0.82;60.38;100519.59;5084883;28;20060;-61
2022/03/28 09:12:10;;;;;;;113.63;8.30;;;;;;;-0.85;59.98;100525.50;5082134;28;20120;-61
2022/03/28 09:14:45;;;;;;;25.48;3.35;;;;;;;-0.93;59.18;100525.25;5084480;28;20090;-61
2022/03/28 09:17:18;;;;;;;24.00;3.13;;;;;;;-0.96;59.48;100532.84;5084359;28;20052;-61
2022/03/28 09:19:52;;;;;;;99.13;5.63;;;;;;;-0.99;60.19;100539.59;5084333;28;20317;-61
2022/03/28 09:22:25;;;;;;;24.63;2.78;;;;;;;-1.05;60.25;100537.66;5084209;28;20250;-60
2022/03/28 09:24:57;;;;;;;8.13;2.20;;;;;;;-1.06;60.88;100546.19;5084047;28;20052;-61
2022/03/28 09:27:31;;;;;;;31.88;3.15;;;;;;;-1.11;61.16;100542.59;5084050;28;20059;-61
2022/03/28 09:30:08;;;;;;;7.72;2.40;;;;;;;-1.09;61.43;100551.22;5084135;28;20067;-60
2022/03/28 09:32:40;;;;;;;10.50;3.22;;;;;;;-1.25;60.27;100528.38;5083532;28;20052;-61
2022/03/28 09:35:19;;;;;;;7.10;3.33;;;;;;;-1.15;61.02;100563.78;5083856;28;20101;-61
2022/03/28 09:37:58;;;;;;;7.82;3.08;;;;;;;-1.16;61.40;100556.94;5084028;28;20328;-60
2022/03/28 09:40:32;;;;;;;5.53;3.42;;;;;;;-1.17;62.18;100563.75;5084352;28;20047;-61
2022/03/28 09:43:06;;;;;;;5.43;3.35;;;;;;;-1.25;62.73;100559.16;5084117;28;20062;-61
2022/03/28 09:45:40;;;;;;;59.25;5.60;;;;;;;-1.22;61.92;100569.50;5083949;28;20392;-60
2022/03/28 09:48:14;;;;;;;18.73;4.05;;;;;;;-1.65;62.40;100516.69;5083974;28;20320;-61
2022/03/28 09:50:48;;;;;;;6.72;3.35;;;;;;;-1.37;62.37;100580.97;5083085;28;20115;-61
2022/03/28 09:53:21;;;;;;;8.40;2.72;;;;;;;-1.40;63.16;100579.97;5083825;28;20048;-61
2022/03/28 09:55:55;;;;;;;7.57;2.55;;;;;;;-1.41;62.44;100588.50;5083639;28;20112;-61
2022/03/28 09:58:42;;;;;;;4.07;2.20;;;;;;;-1.49;62.90;100590.78;5083901;28;20108;-61
2022/03/28 10:01:19;;;;;;;7.82;2.60;;;;;;;-1.51;63.11;100602.66;5083874;28;20075;-61
2022/03/28 10:03:52;;;;;;;4.25;2.38;;;;;;;-1.59;63.13;100593.81;5084110;28;20056;-61
2022/03/28 10:06:24;;;;;;;6.68;2.40;;;;;;;-1.54;63.08;100612.81;5083718;28;20755;-62
2022/03/28 10:08:56;;;;;;;4.95;2.47;;;;;;;-1.54;63.05;100612.81;5083488;28;20335;-61
2022/03/28 10:11:28;;;;;;;8.43;3.83;;;;;;;-1.75;63.71;100588.13;5082447;28;20107;-62
2022/03/28 10:14:01;;;;;;;4.30;2.38;;;;;;;-1.78;64.08;100577.72;5082417;28;20060;-61
2022/03/28 10:16:32;;;;;;;4.40;2.65;;;;;;;-1.53;62.88;100617.09;5084249;28;20217;-61
2022/03/28 10:19:05;;;;;;;6.50;3.17;;;;;;;-1.62;62.88;100609.03;5083048;28;20101;-61
2022/03/28 10:21:39;;;;;;;4.28;2.70;;;;;;;-2.17;63.01;100521.59;5083291;28;20060;-60
2022/03/28 10:24:14;;;;;;;4.78;2.47;;;;;;;-1.59;62.62;100616.88;5082859;28;20048;-60
2022/03/28 10:26:47;;;;;;;38.30;8.95;;;;;;;-1.59;63.20;100620.31;5083003;28;20040;-60
2022/03/28 10:29:22;;;;;;;23.55;9.95;;;;;;;-1.57;63.41;100618.69;5082737;28;20062;-61
2022/03/28 10:31:57;;;;;;;28.58;10.38;;;;;;;-1.60;63.84;100618.56;5083565;28;20083;-60
2022/03/28 10:34:47;;;;;;;26.48;12.43;;;;;;;-2.14;64.03;100525.09;5082918;28;20060;-60
2022/03/28 10:37:33;;;;;;;14.73;7.10;;;;;;;-1.57;63.91;100633.19;5083114;28;20079;-61
2022/03/28 10:40:23;;;;;;;11.52;5.20;;;;;;;-1.60;63.52;100638.16;5082780;28;20064;-61
2022/03/28 10:42:55;;;;;;;;;;;;;;;-1.71;62.44;100645.44;5082986;28;20080;-61
2022/03/28 10:45:36;;;;;;;10.38;4.75;;;;;;;-1.86;62.20;100649.97;5082409;28;19943;-61
2022/03/28 10:48:09;;;;;;;28.40;10.85;;;;;;;-2.11;62.55;100648.97;5082450;28;20074;-61
2022/03/28 10:50:45;;;;;;;10.93;5.13;;;;;;;-2.21;63.05;100663.09;5082408;28;20056;-62
2022/03/28 10:53:19;;;;;;;6.43;3.97;;;;;;;-2.38;63.80;100662.38;5083371;28;20095;-62
2022/03/28 10:55:51;;;;;;;5.78;2.90;;;;;;;-2.49;64.37;100670.44;5083190;28;20370;-61
2022/03/28 10:58:24;;;;;;;11.88;2.65;;;;;;;-2.59;65.06;100664.03;5083492;28;20057;-61
2022/03/28 11:01:21;;;;;;;7.50;2.58;;;;;;;-2.63;65.43;100678.38;5082902;28;20052;-61
2022/03/28 11:04:02;;;;;;;5.30;2.40;;;;;;;-2.67;65.52;100665.38;5086060;28;20376;-61
2022/03/28 11:06:49;;;;;;;5.63;2.55;;;;;;;-2.63;65.57;100680.06;5087203;28;20359;-61
2022/03/28 11:09:50;;;;;;;7.82;2.60;;;;;;;-3.17;65.31;100601.03;5086610;28;20048;-62
2022/03/28 11:12:22;;;;;;;4.45;2.25;;;;;;;-2.76;65.64;100678.66;5086555;28;20076;-62
2022/03/28 11:14:58;;;;;;;5.47;2.90;;;;;;;-2.80;65.42;100669.09;5086517;28;20091;-61
2022/03/28 11:17:31;;;;;;;7.00;2.90;;;;;;;-2.72;65.51;100667.75;5086737;28;20721;-62
2022/03/28 11:20:11;;;;;;;3.45;2.50;;;;;;;-2.62;66.17;100676.72;5086770;28;20059;-60
2022/03/28 11:22:44;;;;;;;5.63;2.70;;;;;;;-2.74;66.23;100674.50;5086568;28;20354;-61
2022/03/28 11:25:35;;;;;;;3.80;2.42;;;;;;;-2.58;66.11;100691.38;5085693;28;20060;-60
2022/03/28 11:28:08;;;;;;;5.28;2.67;;;;;;;-2.62;65.85;100685.25;5084635;28;20052;-61
2022/03/28 11:30:48;;;;;;;8.10;2.97;;;;;;;-2.63;65.47;100683.50;5086386;28;20070;-60
2022/03/28 11:33:22;;;;;;;5.50;2.60;;;;;;;-2.99;65.24;100635.88;5086315;28;20055;-61
2022/03/28 11:35:56;;;;;;;10.15;3.38;;;;;;;-3.04;65.54;100656.13;5086582;28;20049;-61
2022/03/28 11:38:29;;;;;;;26.85;11.82;;;;;;;-2.87;65.60;100692.63;5086087;28;20088;-61
2022/03/28 11:41:01;;;;;;;21.20;9.98;;;;;;;-2.87;65.79;100700.31;5086288;28;20052;-60
2022/03/28 11:43:34;;;;;;;28.40;11.20;;;;;;;-2.93;66.35;100692.38;5086429;28;20062;-60
2022/03/28 11:46:13;;;;;;;44.83;14.98;;;;;;;-2.91;66.35;100706.97;5085856;28;20052;-60
2022/03/28 11:48:59;;;;;;;41.15;15.15;;;;;;;-3.21;67.02;100660.47;5086694;28;20111;-61
2022/03/28 11:51:32;;;;;;;14.90;7.60;;;;;;;-3.06;67.48;100709.72;5085842;28;20411;-60
2022/03/28 11:54:05;;;;;;;9.35;4.57;;;;;;;-3.17;67.62;100712.56;5086470;28;20036;-61
2022/03/28 11:58:14;;;;;;;18.73;9.35;;;;;;;-3.24;68.03;100714.00;5086175;28;20069;-61
2022/03/28 11:59:30;;;;;;;31.63;13.77;;;;;;;-3.36;68.21;100715.97;5085551;28;20051;-60